CYPW

Powell River Airport

Powell River, , Canada
METAR CYPW 170300Z 12009G16KT 3SM -RA BR BKN006 OVC016 08/08 A2959 RMK SF7SC1 LAST STFD OBS NEXT OBS 171500 UTC SLP025
Observed Flight Rules
Dec-17 @ 03:00 UTC (9 hours ago) Instrument Flight Rules
Wind Visibility Clouds Conditions
120° at 9 knots
 Gusting to 16 knots
3 miles
  • Broken at 600' AGL
  • Overcast at 1,600' AGL
  • Light Rain
  • Mist
Temperatures Readings
Current 8°C / 46°F
Dewpoint 8°C / 46°F
Humidity 100%
Altimeter 29.59" Hg
Pressure 1002.5 hPa
Elevation 130
METAR CYPW 170300Z 12009G16KT 3SM -RA BR BKN006 OVC016 08/08 A2959 RMK SF7SC1 LAST STFD OBS NEXT OBS 171500 UTC SLP025
Observed Flight Rules
Dec-17 @ 03:00 UTC
(9 hours ago)
IFR
Wind Visibility
120° at 9 knots
 Gusting to 16 knots
3 miles
Clouds
  • Broken at 600' AGL
  • Overcast at 1,600' AGL
Conditions
  • Light Rain
  • Mist
Temperature Dewpoint
8°C / 46°F 8°C / 46°F
Humidity Altimeter Pressure
100% 29.59" Hg 1002.5 hPa